CheckWX is a tool to help pilots better visualize weather data.  It is not intended as a substitute for an official pre-flight weather briefing.

05:40:32 UTC

SLLP TAF
El Alto International Airport
La Paz / El Alto, Bolivia
TAF SLLP 222245Z 2300/2324 06005KT 9999 FEW015 TX16/2320Z TNM03/2310Z BECMG 2303/2306 3000E VCFG FEW003 SCT012 BECMG 2314/2316 14010KT

Aug-23@
00:00 UTC

Aug-23 @ 00:00 UTC

Aug-23@
03:00 UTC

Aug-23 @ 03:00 UTC

TAF SLLP 222245Z 2300/2324 06005KT 9999 FEW015 TX16/2320Z TNM03/2310Z

Expired

Wind
  • 060° at 5 KTS
Cloud Levels
  • Few at 1,500' AGL

Aug-23@
03:00 UTC

Aug-23 @ 03:00 UTC

Aug-23@
14:00 UTC

Aug-23 @ 14:00 UTC

BECMG 2303/2306 3000E VCFG FEW003 SCT012

Becoming

Becoming Conditions expected by Fri, Aug 23, 2019 @ 06:00 UTC

Wind
  • 060° at 5 KTS
Conditions
Area Fog
Cloud Levels
  • Few at 300' AGL
  • Scattered at 1,200' AGL

Aug-23@
14:00 UTC

Aug-23 @ 14:00 UTC

Aug-24@
00:00 UTC

Aug-24 @ 00:00 UTC

BECMG 2314/2316 14010KT

Becoming

Becoming Conditions expected by Fri, Aug 23, 2019 @ 16:00 UTC

Wind
  • 140° at 10 KTS
Conditions
Area Fog
Cloud Levels
  • Few at 300' AGL
  • Scattered at 1,200' AGL